Time;durP1;ratioP1;P1;durP2;ratioP2;P2;SDS_P1;SDS_P2;PMS_P1;PMS_P2;Temp;Humidity;BMP_temperature;BMP_pressure;BME280_temperature;BME280_humidity;BME280_pressure;Samples;Min_cycle;Max_cycle;Signal;HPM_P1;HPM_P2
2022/01/01 00:01:20;;;;;;;118.55;84.15;;;13.50;88.10;;;;;;5013400;28;20111;-75
2022/01/01 00:03:46;;;;;;;120.10;84.80;;;13.50;88.10;;;;;;5021799;28;20034;-75
2022/01/01 00:06:11;;;;;;;121.35;85.32;;;13.50;88.00;;;;;;5030205;28;20037;-75
2022/01/01 00:08:37;;;;;;;125.97;89.68;;;13.50;88.10;;;;;;5012885;28;20449;-75
2022/01/01 00:11:02;;;;;;;122.25;84.03;;;13.50;88.10;;;;;;5018858;28;20048;-75
2022/01/01 00:13:28;;;;;;;113.43;76.47;;;13.50;88.10;;;;;;4978372;28;20530;-75
2022/01/01 00:15:54;;;;;;;103.22;70.40;;;13.50;88.10;;;;;;5011113;28;20414;-75
2022/01/01 00:18:19;;;;;;;94.25;65.05;;;13.50;88.10;;;;;;5026367;28;20036;-75
2022/01/01 00:20:45;;;;;;;91.70;58.17;;;13.50;88.10;;;;;;5031685;28;20117;-75
2022/01/01 00:23:11;;;;;;;86.63;54.50;;;13.50;88.10;;;;;;5013782;28;20099;-75
2022/01/01 00:25:36;;;;;;;82.25;50.60;;;13.50;88.20;;;;;;5013521;28;20060;-75
2022/01/01 00:28:02;;;;;;;71.70;46.65;;;13.50;88.10;;;;;;5013601;28;20040;-75
2022/01/01 00:30:28;;;;;;;73.05;42.70;;;13.50;88.30;;;;;;5031218;28;20087;-75
2022/01/01 00:32:53;;;;;;;76.32;43.75;;;13.40;88.20;;;;;;5008163;28;20109;-75
2022/01/01 00:35:19;;;;;;;81.28;45.65;;;13.40;88.30;;;;;;5028876;28;20436;-75
2022/01/01 00:37:44;;;;;;;77.80;45.35;;;13.40;88.30;;;;;;4997428;28;20481;-75
2022/01/01 00:40:11;;;;;;;94.53;52.10;;;13.50;88.40;;;;;;5023375;28;20061;-75
2022/01/01 00:42:36;;;;;;;85.03;50.58;;;13.40;88.40;;;;;;5030639;28;20042;-75
2022/01/01 00:45:02;;;;;;;84.95;47.92;;;13.40;88.40;;;;;;5025860;28;20428;-75
2022/01/01 00:47:28;;;;;;;84.88;47.80;;;13.40;88.40;;;;;;5027204;28;20452;-75
2022/01/01 00:49:54;;;;;;;91.70;51.58;;;13.50;88.40;;;;;;5022931;28;20034;-75
2022/01/01 00:52:19;;;;;;;75.70;46.72;;;13.50;88.30;;;;;;4992049;28;20408;-75
2022/01/01 00:54:45;;;;;;;77.97;47.17;;;13.50;88.30;;;;;;5025927;28;20377;-75
2022/01/01 00:57:11;;;;;;;70.50;41.15;;;13.50;88.40;;;;;;4996692;28;20025;-75
2022/01/01 00:59:36;;;;;;;77.10;43.55;;;13.50;88.40;;;;;;5007742;28;20030;-75
2022/01/01 01:02:02;;;;;;;76.45;42.97;;;13.50;88.30;;;;;;5029399;28;20045;-75
2022/01/01 01:04:28;;;;;;;69.20;40.20;;;13.50;88.30;;;;;;5020573;28;20036;-75
2022/01/01 01:06:53;;;;;;;61.53;36.95;;;13.40;88.30;;;;;;5008515;28;20036;-75
2022/01/01 01:09:19;;;;;;;64.38;37.20;;;13.40;88.40;;;;;;5012838;28;20038;-75
2022/01/01 01:11:47;;;;;;;63.40;36.55;;;13.40;88.40;;;;;;4996695;28;20042;-75
2022/01/01 01:14:22;;;;;;;60.47;34.45;;;13.40;88.30;;;;;;5029417;28;20472;-75
2022/01/01 01:16:50;;;;;;;54.70;34.45;;;13.40;88.40;;;;;;5030159;28;20033;-75
2022/01/01 01:19:16;;;;;;;63.53;35.38;;;13.40;88.50;;;;;;5013038;28;20112;-75
2022/01/01 01:21:43;;;;;;;54.75;33.80;;;13.40;88.40;;;;;;5029154;28;20040;-76
2022/01/01 01:24:28;;;;;;;52.25;35.90;;;13.40;88.40;;;;;;5003847;28;20480;-74
2022/01/01 01:26:56;;;;;;;66.70;40.58;;;13.40;88.50;;;;;;5010961;28;20045;-75
2022/01/01 01:29:23;;;;;;;53.97;35.83;;;13.40;88.50;;;;;;5002003;28;20029;-75
2022/01/01 01:31:49;;;;;;;67.70;41.75;;;13.40;88.50;;;;;;5030074;28;20040;-74
2022/01/01 01:34:15;;;;;;;79.63;46.65;;;13.40;88.40;;;;;;5031892;28;20037;-74
2022/01/01 01:36:40;;;;;;;71.70;40.22;;;13.40;88.30;;;;;;5012034;28;20037;-74
2022/01/01 01:39:06;;;;;;;65.15;40.17;;;13.40;88.30;;;;;;5026324;28;20036;-75
2022/01/01 01:41:32;;;;;;;63.15;39.72;;;13.30;88.30;;;;;;5024559;28;20535;-74
2022/01/01 01:43:58;;;;;;;64.45;38.97;;;13.30;88.30;;;;;;5029773;28;20037;-74
2022/01/01 01:46:26;;;;;;;59.75;38.45;;;13.30;88.20;;;;;;5049281;28;20037;-74
2022/01/01 01:48:52;;;;;;;59.40;36.47;;;13.30;88.20;;;;;;5030678;28;20417;-74
2022/01/01 01:51:18;;;;;;;67.22;42.17;;;13.30;88.30;;;;;;4993151;28;20463;-74
2022/01/01 01:53:43;;;;;;;60.00;38.40;;;13.30;88.20;;;;;;5024904;28;20109;-74
2022/01/01 01:56:09;;;;;;;65.65;42.65;;;13.30;88.30;;;;;;5018669;28;20037;-74
2022/01/01 01:58:35;;;;;;;72.07;42.17;;;13.30;88.30;;;;;;5011314;28;20034;-73
2022/01/01 02:03:35;;;;;;;61.72;41.60;;;13.30;88.30;;;;;;5000456;28;20111;-73
2022/01/01 02:06:04;;;;;;;67.75;45.30;;;13.30;88.20;;;;;;5008752;28;20445;-74
2022/01/01 02:08:29;;;;;;;68.70;42.38;;;13.30;88.20;;;;;;5026747;28;20087;-73
2022/01/01 02:10:55;;;;;;;55.83;37.63;;;13.30;88.30;;;;;;5013420;28;20030;-73
2022/01/01 02:13:30;;;;;;;62.92;36.58;;;13.30;88.30;;;;;;5011747;28;20036;-74
2022/01/01 02:18:22;;;;;;;62.30;36.13;;;13.30;88.20;;;;;;5023743;28;20029;-74
2022/01/01 02:20:51;;;;;;;54.05;32.38;;;13.30;88.80;;;;;;5026298;28;20112;-74
2022/01/01 02:23:25;;;;;;;50.05;32.90;;;13.30;88.20;;;;;;5018868;28;20092;-74
2022/01/01 02:25:52;;;;;;;54.83;32.08;;;13.30;88.10;;;;;;4993435;28;20029;-74
2022/01/01 02:28:18;;;;;;;56.28;31.92;;;13.30;88.10;;;;;;5017454;28;20037;-74
2022/01/01 02:30:44;;;;;;;50.60;31.15;;;13.30;88.00;;;;;;5020984;28;20030;-74
2022/01/01 02:33:09;;;;;;;48.88;30.08;;;13.30;88.00;;;;;;5006352;28;20026;-74
2022/01/01 02:35:35;;;;;;;55.30;30.10;;;13.30;88.00;;;;;;5009958;28;20041;-74
2022/01/01 02:38:01;;;;;;;62.88;32.28;;;13.30;87.90;;;;;;5021162;28;20042;-74
2022/01/01 02:40:26;;;;;;;48.72;27.77;;;13.30;88.00;;;;;;5023704;28;20556;-74
2022/01/01 02:42:53;;;;;;;46.88;28.45;;;13.30;88.10;;;;;;5012625;28;20087;-74
2022/01/01 02:45:20;;;;;;;48.47;26.70;;;13.30;88.00;;;;;;5014361;28;20040;-74
2022/01/01 02:47:46;;;;;;;42.83;27.17;;;13.30;88.10;;;;;;5024592;28;20030;-74
2022/01/01 02:50:11;;;;;;;54.22;30.13;;;13.30;88.20;;;;;;4993478;28;20123;-74
2022/01/01 02:52:37;;;;;;;48.13;27.90;;;13.30;88.10;;;;;;5024033;28;20041;-74
2022/01/01 02:55:05;;;;;;;45.88;26.75;;;13.30;88.10;;;;;;5012639;28;20492;-74
2022/01/01 02:57:30;;;;;;;47.97;28.77;;;13.30;88.20;;;;;;5011167;28;20076;-74
2022/01/01 02:59:56;;;;;;;49.10;28.35;;;13.30;88.20;;;;;;4981697;28;20469;-74
2022/01/01 03:02:21;;;;;;;47.00;27.23;;;13.30;88.20;;;;;;5010386;28;20164;-74
2022/01/01 03:04:48;;;;;;;52.65;30.05;;;13.30;88.30;;;;;;5012075;28;20049;-74
2022/01/01 03:07:14;;;;;;;44.42;26.20;;;13.30;88.40;;;;;;5021442;28;20022;-74
2022/01/01 03:09:40;;;;;;;39.10;24.23;;;13.20;88.40;;;;;;5030559;28;20037;-74
2022/01/01 03:12:08;;;;;;;45.55;25.25;;;13.30;88.50;;;;;;5026724;28;20042;-74
2022/01/01 03:14:34;;;;;;;46.45;25.20;;;13.30;88.40;;;;;;5013277;28;20131;-74
2022/01/01 03:17:00;;;;;;;40.78;25.02;;;13.30;88.40;;;;;;5021205;28;20026;-74
2022/01/01 03:19:25;;;;;;;45.10;25.38;;;13.30;88.40;;;;;;5014625;28;20497;-74
2022/01/01 03:21:51;;;;;;;40.70;26.02;;;13.30;88.40;;;;;;5027116;28;20022;-74
2022/01/01 03:24:17;;;;;;;45.60;25.50;;;13.30;88.30;;;;;;5011782;28;20050;-74
2022/01/01 03:26:43;;;;;;;45.17;27.52;;;13.30;88.30;;;;;;5025801;28;20026;-74
2022/01/01 03:29:08;;;;;;;44.38;26.80;;;13.30;88.30;;;;;;5028111;28;20037;-74
2022/01/01 03:31:34;;;;;;;48.03;28.00;;;13.30;88.30;;;;;;5032167;28;20037;-74
2022/01/01 03:34:00;;;;;;;43.80;27.45;;;13.30;88.40;;;;;;5016637;28;20033;-74
2022/01/01 03:36:26;;;;;;;39.40;26.20;;;13.30;88.40;;;;;;5013165;28;20030;-74
2022/01/01 03:38:52;;;;;;;45.72;26.73;;;13.30;88.40;;;;;;5011912;28;20065;-74
2022/01/01 03:41:18;;;;;;;48.22;27.42;;;13.30;88.50;;;;;;5022878;28;20058;-75
2022/01/01 03:43:44;;;;;;;53.95;29.15;;;13.30;88.50;;;;;;4996976;28;20045;-75
2022/01/01 03:46:10;;;;;;;47.88;28.92;;;13.30;88.50;;;;;;5031960;28;20113;-74
2022/01/01 03:48:36;;;;;;;53.40;31.98;;;13.30;88.50;;;;;;5013937;28;20117;-74
2022/01/01 03:51:01;;;;;;;49.88;31.52;;;13.30;88.50;;;;;;5013433;28;20478;-74
2022/01/01 03:53:27;;;;;;;56.63;32.67;;;13.40;88.50;;;;;;5003785;28;20500;-74
2022/01/01 03:55:54;;;;;;;54.90;31.35;;;13.40;88.50;;;;;;4978926;28;20589;-74
2022/01/01 03:58:19;;;;;;;44.95;27.92;;;13.30;89.10;;;;;;5011068;28;20021;-74
2022/01/01 04:00:45;;;;;;;45.75;30.60;;;13.40;88.60;;;;;;5010471;28;20049;-74
2022/01/01 04:03:13;;;;;;;50.22;31.08;;;13.40;88.60;;;;;;4994386;28;20121;-74
2022/01/01 04:05:40;;;;;;;49.70;29.58;;;13.40;88.60;;;;;;5011925;28;20033;-74
2022/01/01 04:08:07;;;;;;;44.40;29.67;;;13.40;88.60;;;;;;5002063;28;20082;-74
2022/01/01 04:10:33;;;;;;;46.95;28.60;;;13.40;88.50;;;;;;5029848;28;20041;-74
2022/01/01 04:13:00;;;;;;;51.28;31.58;;;13.40;88.60;;;;;;5029343;28;20087;-74
2022/01/01 04:15:29;;;;;;;46.38;29.20;;;13.40;88.50;;;;;;5027097;28;20028;-74
2022/01/01 04:17:58;;;;;;;44.95;28.60;;;13.40;88.60;;;;;;5027358;28;20044;-74
2022/01/01 04:20:24;;;;;;;50.15;30.83;;;13.40;88.60;;;;;;4990076;28;20037;-75
2022/01/01 04:22:51;;;;;;;50.53;30.88;;;13.40;88.60;;;;;;5015862;28;20042;-74
2022/01/01 04:25:17;;;;;;;41.28;27.52;;;13.40;88.60;;;;;;5008953;28;20038;-74
2022/01/01 04:27:43;;;;;;;41.97;27.48;;;13.40;88.60;;;;;;5012548;28;20053;-74
2022/01/01 04:30:09;;;;;;;55.28;29.38;;;13.40;88.60;;;;;;4994997;28;20120;-74
2022/01/01 04:32:34;;;;;;;49.17;28.20;;;13.40;88.70;;;;;;4997840;28;20022;-74
2022/01/01 04:35:00;;;;;;;44.35;25.35;;;13.40;88.60;;;;;;5010555;28;20030;-74
2022/01/01 04:37:26;;;;;;;47.40;25.85;;;13.40;88.60;;;;;;5031941;28;20028;-74
2022/01/01 04:39:58;;;;;;;39.47;25.27;;;13.40;88.70;;;;;;5047949;28;20025;-75
2022/01/01 04:42:23;;;;;;;37.30;24.17;;;13.40;88.70;;;;;;5001657;28;20075;-74
2022/01/01 04:44:49;;;;;;;36.42;22.50;;;13.50;88.80;;;;;;5029479;28;20431;-75
2022/01/01 04:47:15;;;;;;;40.30;22.23;;;13.40;88.70;;;;;;4998680;28;20395;-74
2022/01/01 04:49:40;;;;;;;40.03;21.45;;;13.50;88.80;;;;;;5037210;28;20488;-74
2022/01/01 04:52:06;;;;;;;41.67;22.55;;;13.50;88.80;;;;;;5031119;28;20037;-74
2022/01/01 04:54:34;;;;;;;38.13;22.52;;;13.50;88.80;;;;;;5012965;28;20116;-74
2022/01/01 04:56:59;;;;;;;36.92;21.35;;;13.50;88.80;;;;;;5031879;28;20041;-74
2022/01/01 04:59:25;;;;;;;33.50;20.60;;;13.50;88.90;;;;;;5019703;28;20033;-74
2022/01/01 05:01:51;;;;;;;30.48;19.15;;;13.40;88.80;;;;;;5018678;28;20037;-74
2022/01/01 05:04:16;;;;;;;30.55;18.08;;;13.50;88.90;;;;;;5017538;28;20558;-74
2022/01/01 05:06:42;;;;;;;40.28;21.00;;;13.50;89.00;;;;;;5001350;28;20515;-74
2022/01/01 05:09:08;;;;;;;35.97;20.50;;;13.40;89.00;;;;;;5018610;28;20063;-74
2022/01/01 05:11:34;;;;;;;28.63;17.67;;;13.50;89.10;;;;;;5040075;28;20040;-75
2022/01/01 05:14:00;;;;;;;33.17;17.73;;;13.50;89.10;;;;;;5036759;28;20039;-74
2022/01/01 05:16:26;;;;;;;31.75;18.75;;;13.40;89.10;;;;;;5029846;28;20673;-74
2022/01/01 05:18:51;;;;;;;28.17;17.60;;;13.50;89.10;;;;;;5013583;28;20441;-74
2022/01/01 05:21:17;;;;;;;26.35;14.75;;;13.40;89.10;;;;;;5013263;28;20044;-74
2022/01/01 05:23:43;;;;;;;32.72;18.13;;;13.50;89.20;;;;;;5022804;28;20072;-74
2022/01/01 05:26:08;;;;;;;31.75;16.50;;;13.50;89.20;;;;;;5030538;28;20026;-74
2022/01/01 05:28:34;;;;;;;31.98;16.60;;;13.50;89.20;;;;;;5007630;28;20057;-74
2022/01/01 05:31:00;;;;;;;23.58;15.32;;;13.50;89.20;;;;;;5001240;28;20033;-74
2022/01/01 05:33:25;;;;;;;27.67;15.63;;;13.50;89.20;;;;;;5030815;28;20383;-74
2022/01/01 05:35:51;;;;;;;27.55;14.48;;;13.50;89.20;;;;;;4988968;28;20485;-74
2022/01/01 05:38:17;;;;;;;28.65;14.15;;;13.50;89.20;;;;;;5031825;28;20496;-74
2022/01/01 05:40:43;;;;;;;27.83;13.48;;;13.50;89.30;;;;;;5049647;28;20399;-74
2022/01/01 05:43:13;;;;;;;23.77;13.18;;;13.50;89.30;;;;;;5032457;28;20033;-74
2022/01/01 05:45:42;;;;;;;25.70;13.63;;;13.50;89.30;;;;;;5047850;28;20442;-74
2022/01/01 05:48:08;;;;;;;24.95;13.02;;;13.50;89.20;;;;;;4999412;28;20041;-74
2022/01/01 05:50:33;;;;;;;19.52;11.70;;;13.50;89.20;;;;;;5049820;28;20051;-74
2022/01/01 05:52:59;;;;;;;23.20;12.70;;;13.50;89.20;;;;;;5030550;28;20031;-74
2022/01/01 05:55:25;;;;;;;23.17;12.75;;;13.50;89.20;;;;;;5041601;28;20060;-74
2022/01/01 05:57:50;;;;;;;21.98;11.45;;;13.50;89.20;;;;;;5025433;28;20036;-74
2022/01/01 06:00:16;;;;;;;16.77;10.70;;;13.50;89.20;;;;;;5030462;28;20117;-75
2022/01/01 06:02:43;;;;;;;23.25;10.50;;;13.50;89.20;;;;;;5042256;28;20068;-74
2022/01/01 06:05:10;;;;;;;23.27;11.30;;;13.50;89.20;;;;;;5033780;28;20495;-74
2022/01/01 06:07:36;;;;;;;17.92;9.20;;;13.50;89.20;;;;;;5012139;28;20025;-74
2022/01/01 06:10:03;;;;;;;21.70;10.27;;;13.50;89.20;;;;;;5019466;28;20098;-74
2022/01/01 06:12:29;;;;;;;17.58;10.10;;;13.50;89.20;;;;;;5017166;28;20025;-74
2022/01/01 06:14:54;;;;;;;18.90;9.35;;;13.50;89.20;;;;;;5010740;28;20030;-74
2022/01/01 06:17:20;;;;;;;18.58;10.50;;;13.50;89.20;;;;;;5008898;28;20029;-74
2022/01/01 06:19:45;;;;;;;23.88;10.90;;;13.50;89.10;;;;;;5012496;28;20033;-74
2022/01/01 06:22:13;;;;;;;17.90;9.23;;;13.50;89.00;;;;;;5032454;28;20506;-74
2022/01/01 06:24:39;;;;;;;17.40;10.07;;;13.50;89.10;;;;;;5006614;28;20048;-74
2022/01/01 06:27:05;;;;;;;21.10;10.73;;;13.50;89.00;;;;;;5021423;28;20111;-74
2022/01/01 06:29:31;;;;;;;19.15;11.07;;;13.50;88.80;;;;;;5046280;28;20040;-74
2022/01/01 06:31:57;;;;;;;20.38;11.07;;;13.50;88.80;;;;;;5018294;28;20508;-74
2022/01/01 06:34:22;;;;;;;22.63;11.52;;;13.50;88.80;;;;;;5012029;28;20029;-74
2022/01/01 06:36:51;;;;;;;22.67;12.23;;;13.50;88.70;;;;;;5016065;28;20031;-74
2022/01/01 06:39:17;;;;;;;24.27;11.77;;;13.50;88.60;;;;;;5015878;28;20124;-74
2022/01/01 06:41:43;;;;;;;18.40;10.35;;;13.50;88.60;;;;;;5033261;28;20084;-74
2022/01/01 06:44:08;;;;;;;20.33;11.02;;;13.50;88.70;;;;;;5015762;28;20061;-74
2022/01/01 06:46:34;;;;;;;18.13;10.55;;;13.50;88.60;;;;;;5033108;28;20034;-74
2022/01/01 06:49:00;;;;;;;17.30;10.65;;;13.50;88.60;;;;;;5037795;28;20083;-74
2022/01/01 06:51:25;;;;;;;15.98;10.50;;;13.50;89.00;;;;;;4998774;28;20123;-75
2022/01/01 06:53:51;;;;;;;20.98;11.05;;;13.50;88.40;;;;;;5027840;28;20448;-74
2022/01/01 06:56:17;;;;;;;16.02;9.68;;;13.50;88.30;;;;;;5052372;28;20456;-74
2022/01/01 06:58:42;;;;;;;20.38;10.95;;;13.50;88.30;;;;;;5034985;28;20108;-74
2022/01/01 07:01:08;;;;;;;19.00;10.20;;;13.40;88.10;;;;;;5006846;28;20068;-74
2022/01/01 07:03:33;;;;;;;18.50;9.63;;;13.40;88.20;;;;;;5033210;28;20026;-74
2022/01/01 07:05:59;;;;;;;18.60;10.65;;;13.40;88.20;;;;;;5032724;28;20030;-74
2022/01/01 07:08:25;;;;;;;20.80;10.75;;;13.30;88.10;;;;;;5015663;28;20172;-74
2022/01/01 07:10:54;;;;;;;17.00;9.75;;;13.30;88.10;;;;;;5032957;28;20671;-74
2022/01/01 07:13:20;;;;;;;20.67;10.57;;;13.30;88.00;;;;;;5016040;28;20095;-74
2022/01/01 07:15:46;;;;;;;16.83;9.40;;;13.30;88.00;;;;;;5033748;28;20033;-74
2022/01/01 07:18:12;;;;;;;18.63;9.57;;;13.30;88.00;;;;;;5033896;28;20037;-74
2022/01/01 07:20:37;;;;;;;16.02;9.13;;;13.30;88.00;;;;;;5035189;28;20037;-74
2022/01/01 07:23:03;;;;;;;18.33;8.65;;;13.20;87.70;;;;;;5016205;28;20037;-74
2022/01/01 07:25:29;;;;;;;14.75;8.68;;;13.20;87.70;;;;;;5028909;28;20029;-74
2022/01/01 07:27:55;;;;;;;13.73;7.57;;;13.20;87.70;;;;;;5016583;28;20033;-74
2022/01/01 07:30:21;;;;;;;16.33;7.65;;;13.20;87.80;;;;;;5015306;28;20112;-74
2022/01/01 07:32:48;;;;;;;17.02;8.57;;;13.20;87.80;;;;;;5046645;28;20606;-74
2022/01/01 07:35:16;;;;;;;15.20;8.02;;;13.20;87.80;;;;;;5052506;28;20025;-74
2022/01/01 07:37:42;;;;;;;16.55;7.88;;;13.20;87.80;;;;;;5039232;28;20100;-74
2022/01/01 07:40:11;;;;;;;14.32;7.45;;;13.20;87.90;;;;;;5032294;28;20088;-74
2022/01/01 07:42:38;;;;;;;14.27;7.60;;;13.20;87.90;;;;;;5026259;28;20032;-74
2022/01/01 07:45:04;;;;;;;14.25;7.22;;;13.20;88.00;;;;;;5042989;28;20116;-73
2022/01/01 07:47:30;;;;;;;16.35;7.05;;;13.20;87.90;;;;;;5032481;28;20388;-74
2022/01/01 07:49:56;;;;;;;9.90;6.05;;;13.20;87.90;;;;;;5033824;28;20034;-74
2022/01/01 07:52:22;;;;;;;12.13;6.45;;;13.20;87.80;;;;;;5016289;28;20535;-74
2022/01/01 07:54:47;;;;;;;14.60;7.10;;;13.20;87.70;;;;;;5029100;28;20021;-75
2022/01/01 07:57:13;;;;;;;15.25;7.30;;;13.20;87.70;;;;;;5018573;28;20030;-72
2022/01/01 07:59:39;;;;;;;13.13;6.78;;;13.20;87.80;;;;;;5021785;28;20025;-73
2022/01/01 08:02:04;;;;;;;12.82;6.38;;;13.20;87.70;;;;;;4996480;28;20116;-73
2022/01/01 08:04:30;;;;;;;11.75;6.57;;;13.20;87.70;;;;;;5021930;28;20056;-72
2022/01/01 08:06:56;;;;;;;13.18;7.07;;;13.10;87.70;;;;;;5019404;28;20449;-72
2022/01/01 08:09:22;;;;;;;15.15;6.50;;;13.20;87.70;;;;;;5008808;28;20483;-72
2022/01/01 08:11:47;;;;;;;14.98;6.75;;;13.20;87.60;;;;;;5021704;28;20049;-72
2022/01/01 08:14:13;;;;;;;15.88;6.57;;;13.10;87.50;;;;;;5015537;28;20057;-72
2022/01/01 08:16:58;;;;;;;13.73;5.80;;;13.20;87.40;;;;;;5006850;28;20076;-72
2022/01/01 08:19:24;;;;;;;12.25;5.80;;;13.20;87.40;;;;;;5022180;28;20032;-72
2022/01/01 08:21:50;;;;;;;12.32;5.72;;;13.20;87.20;;;;;;5022400;28;20120;-72
2022/01/01 08:24:16;;;;;;;13.20;6.63;;;13.20;87.20;;;;;;5024852;28;20145;-72
2022/01/01 08:26:41;;;;;;;11.98;5.85;;;13.20;87.00;;;;;;5012083;28;20037;-72
2022/01/01 08:29:07;;;;;;;13.50;5.75;;;13.20;87.00;;;;;;5012429;28;20619;-72
2022/01/01 08:31:43;;;;;;;13.52;5.85;;;13.20;86.80;;;;;;5008729;28;20040;-72
2022/01/01 08:34:10;;;;;;;17.27;6.20;;;13.20;86.70;;;;;;5014661;28;20034;-73
2022/01/01 08:36:36;;;;;;;13.55;6.03;;;13.20;86.70;;;;;;5009580;28;20029;-72
2022/01/01 08:39:05;;;;;;;15.52;7.95;;;13.20;86.60;;;;;;5021862;28;20061;-72
2022/01/01 08:41:31;;;;;;;12.75;5.28;;;13.30;86.60;;;;;;5011881;28;20473;-72
2022/01/01 08:43:57;;;;;;;15.18;5.55;;;13.30;86.60;;;;;;5030161;28;20139;-72
2022/01/01 08:46:22;;;;;;;9.70;5.03;;;13.30;86.60;;;;;;5050444;28;20064;-72
2022/01/01 08:48:48;;;;;;;9.90;5.15;;;13.30;86.60;;;;;;5051687;28;20040;-73
2022/01/01 08:51:18;;;;;;;13.82;6.43;;;13.40;86.50;;;;;;5030757;28;20040;-73
2022/01/01 08:53:46;;;;;;;13.48;5.90;;;13.40;86.30;;;;;;5012832;28;20029;-72
2022/01/01 08:56:12;;;;;;;13.30;4.88;;;13.40;86.20;;;;;;5025919;28;20464;-72
2022/01/01 08:58:39;;;;;;;9.50;5.50;;;13.40;86.30;;;;;;4993014;28;20052;-72
2022/01/01 09:01:06;;;;;;;11.73;5.25;;;13.50;86.30;;;;;;5032700;28;20110;-72
2022/01/01 09:03:34;;;;;;;11.25;5.70;;;13.50;86.20;;;;;;5032386;28;20694;-72
2022/01/01 09:06:04;;;;;;;12.65;4.93;;;13.50;86.20;;;;;;5002935;28;20504;-73
2022/01/01 09:08:34;;;;;;;12.45;5.03;;;13.50;86.10;;;;;;5026196;28;20028;-72
2022/01/01 09:11:00;;;;;;;12.25;5.03;;;13.50;86.00;;;;;;5013412;28;20045;-72
2022/01/01 09:13:25;;;;;;;10.32;5.05;;;13.50;86.00;;;;;;5003852;28;20020;-72
2022/01/01 09:15:52;;;;;;;12.02;5.30;;;13.50;85.80;;;;;;4994944;28;20057;-73
2022/01/01 09:18:18;;;;;;;11.00;5.10;;;13.50;85.60;;;;;;5001628;28;20029;-72
2022/01/01 09:20:43;;;;;;;10.80;5.07;;;13.50;85.60;;;;;;5032222;28;20072;-73
2022/01/01 09:23:09;;;;;;;9.27;4.78;;;13.60;85.80;;;;;;5012065;28;20491;-72
2022/01/01 09:25:36;;;;;;;10.95;5.35;;;13.60;85.80;;;;;;5018139;28;20503;-72
2022/01/01 09:28:02;;;;;;;9.13;4.88;;;13.60;85.60;;;;;;5010919;28;20432;-72
2022/01/01 09:30:28;;;;;;;15.02;5.53;;;13.60;85.60;;;;;;5026205;28;20032;-72
2022/01/01 09:32:53;;;;;;;11.70;5.10;;;13.60;85.70;;;;;;5016757;28;20032;-72
2022/01/01 09:35:19;;;;;;;10.90;4.60;;;13.70;85.50;;;;;;5012179;28;20761;-73
2022/01/01 09:37:45;;;;;;;11.68;5.63;;;13.70;85.60;;;;;;5005891;28;20037;-73
2022/01/01 09:40:11;;;;;;;10.38;5.20;;;13.70;85.40;;;;;;5011965;28;20428;-72
2022/01/01 09:42:39;;;;;;;10.77;4.80;;;13.70;85.30;;;;;;5024092;28;20026;-72
2022/01/01 09:45:09;;;;;;;10.00;4.57;;;13.70;85.30;;;;;;5030060;28;20013;-72
2022/01/01 09:47:38;;;;;;;11.60;4.70;;;13.70;85.30;;;;;;5025298;28;20045;-72
2022/01/01 09:50:08;;;;;;;9.10;4.47;;;13.70;85.30;;;;;;5015037;28;20117;-72
2022/01/01 09:52:34;;;;;;;8.70;4.53;;;13.80;85.30;;;;;;5033335;28;20404;-72
2022/01/01 09:55:00;;;;;;;9.40;4.30;;;13.80;85.20;;;;;;5028928;28;20352;-72
2022/01/01 09:57:25;;;;;;;8.02;4.00;;;13.80;85.20;;;;;;5025098;28;20030;-72
2022/01/01 09:59:51;;;;;;;9.00;4.30;;;13.80;85.10;;;;;;5030214;28;20108;-72
2022/01/01 10:02:17;;;;;;;8.95;4.25;;;13.80;84.90;;;;;;5012992;28;20041;-72
2022/01/01 10:05:05;;;;;;;9.52;4.40;;;13.80;85.00;;;;;;5015055;28;20025;-72
2022/01/01 10:07:30;;;;;;;11.00;4.22;;;13.80;84.90;;;;;;5017555;28;20017;-72
2022/01/01 10:13:56;;;;;;;10.45;3.80;;;13.90;84.80;;;;;;5011527;28;20523;-73
2022/01/01 10:24:01;;;;;;;9.75;4.47;;;13.90;84.80;;;;;;5046847;28;20498;-72
2022/01/01 10:29:49;;;;;;;10.52;4.53;;;13.90;84.60;;;;;;5029182;28;20079;-73
2022/01/01 10:32:15;;;;;;;9.45;5.20;;;13.90;84.60;;;;;;5012146;28;20428;-73
2022/01/01 10:34:46;;;;;;;13.63;5.03;;;14.00;84.30;;;;;;5044650;28;20476;-72
2022/01/01 10:37:14;;;;;;;9.80;4.97;;;14.00;84.10;;;;;;5039355;28;20037;-72
2022/01/01 13:55:10;;;;;;;6.68;4.00;;;15.10;79.80;;;;;;5118968;27;20455;-73
2022/01/01 13:57:39;;;;;;;6.63;3.72;;;15.10;80.50;;;;;;5090282;28;20383;-73
2022/01/01 14:00:06;;;;;;;5.97;3.80;;;15.20;80.80;;;;;;5091025;28;20063;-73
2022/01/01 14:02:32;;;;;;;7.85;4.00;;;15.10;80.60;;;;;;5094029;28;20089;-73
2022/01/01 14:05:02;;;;;;;6.45;4.28;;;15.20;80.60;;;;;;5103002;28;20398;-73
2022/01/01 14:07:29;;;;;;;7.22;4.55;;;15.10;80.40;;;;;;5121165;27;20126;-74
2022/01/01 14:10:15;;;;;;;8.55;4.85;;;15.20;80.40;;;;;;5117922;27;20042;-73
2022/01/01 14:12:48;;;;;;;7.80;3.88;;;15.10;80.20;;;;;;5099121;28;20652;-73
2022/01/01 14:15:21;;;;;;;5.55;3.90;;;15.10;80.20;;;;;;5101873;28;20511;-73
2022/01/01 14:17:59;;;;;;;9.75;4.60;;;15.10;80.20;;;;;;5088805;28;20027;-74
2022/01/01 14:20:29;;;;;;;5.60;4.22;;;15.10;80.30;;;;;;5098145;28;20406;-74
2022/01/01 14:22:56;;;;;;;6.60;4.28;;;15.00;80.30;;;;;;5077640;28;20024;-73
2022/01/01 14:25:23;;;;;;;4.82;3.85;;;15.00;80.30;;;;;;5092886;28;20462;-73
2022/01/01 14:27:49;;;;;;;6.55;4.28;;;15.00;80.40;;;;;;5070397;28;20040;-73
2022/01/01 14:30:15;;;;;;;6.93;4.53;;;15.00;80.60;;;;;;5104051;28;20039;-71
2022/01/01 14:32:45;;;;;;;6.88;4.10;;;14.90;80.50;;;;;;5098659;28;20024;-71
2022/01/01 14:35:11;;;;;;;6.28;4.13;;;14.90;80.60;;;;;;5105060;28;20486;-70
2022/01/01 14:37:37;;;;;;;9.07;4.55;;;14.90;80.50;;;;;;5092647;28;20055;-71
2022/01/01 14:40:04;;;;;;;7.45;4.25;;;14.90;80.20;;;;;;5080238;28;20506;-70
2022/01/01 14:42:30;;;;;;;5.82;4.30;;;14.90;80.30;;;;;;5095002;28;20394;-72
2022/01/01 14:44:55;;;;;;;7.68;4.00;;;14.90;80.30;;;;;;5112631;27;20032;-73
2022/01/01 14:47:27;;;;;;;7.22;4.05;;;14.90;80.40;;;;;;5085258;28;20192;-72
2022/01/01 14:49:56;;;;;;;8.18;3.85;;;14.90;80.40;;;;;;5103678;28;20059;-73
2022/01/01 14:52:43;;;;;;;5.75;4.00;;;14.80;80.40;;;;;;5105808;28;20039;-73
2022/01/01 14:55:16;;;;;;;6.50;3.78;;;14.80;80.50;;;;;;5088758;28;20105;-73
2022/01/01 14:57:45;;;;;;;7.05;4.13;;;14.80;80.50;;;;;;5100975;28;20209;-74
2022/01/01 15:00:15;;;;;;;6.25;3.92;;;14.80;80.60;;;;;;5109500;27;20032;-74
2022/01/01 15:02:42;;;;;;;6.95;4.22;;;14.70;80.60;;;;;;5106852;28;20023;-73
2022/01/01 15:05:09;;;;;;;5.10;4.00;;;14.70;80.70;;;;;;5090744;28;20029;-73
2022/01/01 15:07:39;;;;;;;6.90;4.63;;;14.70;80.90;;;;;;5058894;28;20032;-73
2022/01/01 15:10:07;;;;;;;6.18;3.90;;;14.60;80.90;;;;;;5088525;28;20729;-74
2022/01/01 15:12:32;;;;;;;8.93;4.57;;;14.60;81.00;;;;;;5086178;28;20089;-73
2022/01/01 15:14:59;;;;;;;6.45;4.40;;;14.50;81.20;;;;;;5080982;28;20064;-73
2022/01/01 15:17:26;;;;;;;5.95;3.92;;;14.50;81.30;;;;;;5078111;28;20032;-73
2022/01/01 15:19:53;;;;;;;6.75;3.80;;;14.50;81.40;;;;;;5081325;28;20376;-73
2022/01/01 15:22:46;;;;;;;6.25;4.22;;;14.50;81.40;;;;;;5074954;28;20042;-73
2022/01/01 15:25:14;;;;;;;5.22;3.97;;;14.40;81.20;;;;;;5063962;28;20398;-73
2022/01/01 15:27:42;;;;;;;5.65;4.00;;;14.40;81.40;;;;;;5084524;28;20409;-73
2022/01/01 15:35:37;;;;;;;5.20;3.88;;;14.30;81.40;;;;;;5087872;28;20142;-73
2022/01/01 15:43:31;;;;;;;6.05;4.40;;;14.20;81.50;;;;;;5089382;28;20056;-74
2022/01/01 15:45:57;;;;;;;6.35;3.67;;;14.10;81.40;;;;;;5086004;28;20051;-73
2022/01/01 15:48:23;;;;;;;6.55;4.20;;;14.10;81.50;;;;;;5101774;27;20471;-73
2022/01/01 15:50:51;;;;;;;4.82;4.00;;;14.10;81.30;;;;;;5091135;28;20047;-73
2022/01/01 15:53:19;;;;;;;5.32;4.00;;;14.10;81.30;;;;;;5090025;28;20130;-74
2022/01/01 15:55:56;;;;;;;5.28;4.20;;;14.00;81.20;;;;;;5089985;28;20108;-73
2022/01/01 15:58:26;;;;;;;5.30;4.20;;;14.00;81.40;;;;;;5084135;28;20028;-74
2022/01/01 16:01:00;;;;;;;5.78;3.63;;;14.00;81.40;;;;;;5105439;28;20035;-73
2022/01/01 16:03:43;;;;;;;10.10;4.40;;;13.90;81.70;;;;;;5089981;28;20063;-73
2022/01/01 16:06:18;;;;;;;5.38;4.13;;;13.90;81.60;;;;;;5085170;28;20043;-73
2022/01/01 16:08:54;;;;;;;6.07;4.53;;;13.90;81.70;;;;;;5089012;28;20060;-74
2022/01/01 16:11:24;;;;;;;8.48;4.70;;;13.90;81.80;;;;;;5070797;28;20025;-71
2022/01/01 16:13:57;;;;;;;8.98;5.88;;;13.80;81.70;;;;;;5084904;28;20047;-71
2022/01/01 16:16:23;;;;;;;6.55;5.40;;;13.90;81.80;;;;;;5081553;28;20082;-71
2022/01/01 16:19:00;;;;;;;10.57;6.88;;;13.80;81.90;;;;;;5085199;28;20020;-70